Аэропорт: Пулково. Санкт-Петербург

ICAO: ULLI

METAR:
2019-09-21 15:30:00
ULLI 211530Z 00000MPS 8000 FEW007 SCT025CB OVC033 07/05 Q1005 R88/290050 NOSIG RMK OBST OBSC
METAR:
2019-09-21 13:57:00
TAF ULLI 211357Z 2115/2215 02003MPS 5000 -RA BR BKN010 BKN020 TEMPO 2115/2117 36003MPS 3100 -SHRA BR BKN006 BKN017CB BECMG 2117/2118 32003G08MPS TEMPO 2117/2204 3100 -SHRA BKN007 BKN020CB FM220500 34007G13MPS 6000 BKN011 BKN020 TEMPO 2205/2215 35010G15MPS 3100 -SHRA BKN011 BKN015CB